sensor_id;sensor_type;location;lat;lon;timestamp;temperature;humidity
51783;DHT22;37845;53.196;5.638;2023-05-29T00:01:13;10.70;99.90
51783;DHT22;37845;53.196;5.638;2023-05-29T00:03:38;10.70;99.90
51783;DHT22;37845;53.196;5.638;2023-05-29T00:06:04;10.70;99.90
51783;DHT22;37845;53.196;5.638;2023-05-29T00:08:31;10.70;99.90
51783;DHT22;37845;53.196;5.638;2023-05-29T00:10:57;10.70;99.90
51783;DHT22;37845;53.196;5.638;2023-05-29T00:13:23;10.70;99.90
51783;DHT22;37845;53.196;5.638;2023-05-29T00:15:49;10.70;99.90
51783;DHT22;37845;53.196;5.638;2023-05-29T00:18:15;10.70;99.90
51783;DHT22;37845;53.196;5.638;2023-05-29T00:20:41;10.70;99.90
51783;DHT22;37845;53.196;5.638;2023-05-29T00:23:07;10.60;99.90
51783;DHT22;37845;53.196;5.638;2023-05-29T00:25:33;10.90;99.90
51783;DHT22;37845;53.196;5.638;2023-05-29T00:27:58;10.60;99.90
51783;DHT22;37845;53.196;5.638;2023-05-29T00:30:24;10.60;99.90
51783;DHT22;37845;53.196;5.638;2023-05-29T00:32:50;10.50;99.90
51783;DHT22;37845;53.196;5.638;2023-05-29T00:35:17;10.50;99.90
51783;DHT22;37845;53.196;5.638;2023-05-29T00:37:43;10.50;99.90
51783;DHT22;37845;53.196;5.638;2023-05-29T00:40:10;10.50;99.90
51783;DHT22;37845;53.196;5.638;2023-05-29T00:42:36;10.50;99.90
51783;DHT22;37845;53.196;5.638;2023-05-29T00:45:02;10.40;99.90
51783;DHT22;37845;53.196;5.638;2023-05-29T00:47:28;10.40;99.90
51783;DHT22;37845;53.196;5.638;2023-05-29T00:49:56;10.40;99.90
51783;DHT22;37845;53.196;5.638;2023-05-29T00:52:24;10.40;99.90
51783;DHT22;37845;53.196;5.638;2023-05-29T00:54:50;10.30;99.90
51783;DHT22;37845;53.196;5.638;2023-05-29T00:57:17;10.30;99.90
51783;DHT22;37845;53.196;5.638;2023-05-29T00:59:47;10.40;99.90
51783;DHT22;37845;53.196;5.638;2023-05-29T01:02:16;10.40;99.90
51783;DHT22;37845;53.196;5.638;2023-05-29T01:04:45;10.40;99.90
51783;DHT22;37845;53.196;5.638;2023-05-29T01:07:12;10.10;99.90
51783;DHT22;37845;53.196;5.638;2023-05-29T01:09:39;10.50;99.90
51783;DHT22;37845;53.196;5.638;2023-05-29T01:20:23;10.50;99.90
51783;DHT22;37845;53.196;5.638;2023-05-29T01:23:23;10.50;99.90
51783;DHT22;37845;53.196;5.638;2023-05-29T01:28:33;10.50;99.90
51783;DHT22;37845;53.196;5.638;2023-05-29T01:31:04;10.50;99.90
51783;DHT22;37845;53.196;5.638;2023-05-29T01:33:39;10.60;99.90
51783;DHT22;37845;53.196;5.638;2023-05-29T01:36:07;10.60;99.90
51783;DHT22;37845;53.196;5.638;2023-05-29T01:38:33;10.50;99.90
51783;DHT22;37845;53.196;5.638;2023-05-29T01:40:59;10.50;99.90
51783;DHT22;37845;53.196;5.638;2023-05-29T01:43:25;10.60;99.90
51783;DHT22;37845;53.196;5.638;2023-05-29T01:45:54;10.60;99.90
51783;DHT22;37845;53.196;5.638;2023-05-29T01:48:21;10.60;99.90
51783;DHT22;37845;53.196;5.638;2023-05-29T01:50:47;10.60;99.90
51783;DHT22;37845;53.196;5.638;2023-05-29T01:53:20;10.60;99.90
51783;DHT22;37845;53.196;5.638;2023-05-29T01:55:48;10.60;99.90
51783;DHT22;37845;53.196;5.638;2023-05-29T01:58:15;10.60;99.90
51783;DHT22;37845;53.196;5.638;2023-05-29T02:00:42;10.60;99.90
51783;DHT22;37845;53.196;5.638;2023-05-29T02:03:07;10.70;99.90
51783;DHT22;37845;53.196;5.638;2023-05-29T02:05:33;10.60;99.90
51783;DHT22;37845;53.196;5.638;2023-05-29T02:07:58;10.60;99.90
51783;DHT22;37845;53.196;5.638;2023-05-29T02:10:39;10.60;99.90
51783;DHT22;37845;53.196;5.638;2023-05-29T02:13:11;10.60;99.90
51783;DHT22;37845;53.196;5.638;2023-05-29T02:15:40;10.60;99.90
51783;DHT22;37845;53.196;5.638;2023-05-29T02:18:10;10.50;99.90
51783;DHT22;37845;53.196;5.638;2023-05-29T02:20:40;10.60;99.90
51783;DHT22;37845;53.196;5.638;2023-05-29T02:23:05;10.60;99.90
51783;DHT22;37845;53.196;5.638;2023-05-29T02:25:31;10.60;99.90
51783;DHT22;37845;53.196;5.638;2023-05-29T02:27:57;10.60;99.90
51783;DHT22;37845;53.196;5.638;2023-05-29T02:30:23;10.60;99.90
51783;DHT22;37845;53.196;5.638;2023-05-29T02:32:48;10.60;99.90
51783;DHT22;37845;53.196;5.638;2023-05-29T02:35:14;10.70;99.90
51783;DHT22;37845;53.196;5.638;2023-05-29T02:37:41;10.40;99.90
51783;DHT22;37845;53.196;5.638;2023-05-29T02:40:07;10.70;99.90
51783;DHT22;37845;53.196;5.638;2023-05-29T02:42:37;10.70;99.90
51783;DHT22;37845;53.196;5.638;2023-05-29T02:45:06;10.70;99.90
51783;DHT22;37845;53.196;5.638;2023-05-29T02:47:32;10.70;99.90
51783;DHT22;37845;53.196;5.638;2023-05-29T02:50:00;10.70;99.90
51783;DHT22;37845;53.196;5.638;2023-05-29T02:52:26;10.70;99.90
51783;DHT22;37845;53.196;5.638;2023-05-29T02:54:52;11.20;99.90
51783;DHT22;37845;53.196;5.638;2023-05-29T02:57:20;10.70;99.90
51783;DHT22;37845;53.196;5.638;2023-05-29T02:59:46;10.80;99.90
51783;DHT22;37845;53.196;5.638;2023-05-29T03:02:12;10.80;99.90
51783;DHT22;37845;53.196;5.638;2023-05-29T03:04:37;10.80;99.90
51783;DHT22;37845;53.196;5.638;2023-05-29T03:07:06;10.90;99.90
51783;DHT22;37845;53.196;5.638;2023-05-29T03:09:32;10.90;99.90
51783;DHT22;37845;53.196;5.638;2023-05-29T03:11:58;10.90;99.90
51783;DHT22;37845;53.196;5.638;2023-05-29T03:14:27;10.90;99.90
51783;DHT22;37845;53.196;5.638;2023-05-29T03:16:53;10.90;99.90
51783;DHT22;37845;53.196;5.638;2023-05-29T03:19:20;10.90;99.90
51783;DHT22;37845;53.196;5.638;2023-05-29T03:21:48;10.90;99.90
51783;DHT22;37845;53.196;5.638;2023-05-29T03:24:14;10.90;99.90
51783;DHT22;37845;53.196;5.638;2023-05-29T03:26:40;10.90;99.90
51783;DHT22;37845;53.196;5.638;2023-05-29T03:29:06;10.90;99.90
51783;DHT22;37845;53.196;5.638;2023-05-29T03:31:38;11.00;99.90
51783;DHT22;37845;53.196;5.638;2023-05-29T03:34:03;11.00;99.90
51783;DHT22;37845;53.196;5.638;2023-05-29T03:36:32;10.90;99.90
51783;DHT22;37845;53.196;5.638;2023-05-29T03:38:58;10.90;99.90
51783;DHT22;37845;53.196;5.638;2023-05-29T03:41:26;10.90;99.90
51783;DHT22;37845;53.196;5.638;2023-05-29T03:43:52;10.90;99.90
51783;DHT22;37845;53.196;5.638;2023-05-29T03:46:20;10.90;99.90
51783;DHT22;37845;53.196;5.638;2023-05-29T03:48:46;10.90;99.90
51783;DHT22;37845;53.196;5.638;2023-05-29T03:51:12;10.90;99.90
51783;DHT22;37845;53.196;5.638;2023-05-29T03:53:38;10.90;99.90
51783;DHT22;37845;53.196;5.638;2023-05-29T03:56:03;10.90;99.90
51783;DHT22;37845;53.196;5.638;2023-05-29T03:58:29;10.90;99.90
51783;DHT22;37845;53.196;5.638;2023-05-29T04:01:00;10.90;99.90
51783;DHT22;37845;53.196;5.638;2023-05-29T04:03:26;10.90;99.90
51783;DHT22;37845;53.196;5.638;2023-05-29T04:05:52;10.90;99.90
51783;DHT22;37845;53.196;5.638;2023-05-29T04:08:18;11.00;99.90
51783;DHT22;37845;53.196;5.638;2023-05-29T04:10:43;11.00;99.90
51783;DHT22;37845;53.196;5.638;2023-05-29T04:13:09;11.00;99.90
51783;DHT22;37845;53.196;5.638;2023-05-29T04:15:35;11.00;99.90
51783;DHT22;37845;53.196;5.638;2023-05-29T04:18:01;11.00;99.90
51783;DHT22;37845;53.196;5.638;2023-05-29T04:20:30;11.00;99.90
51783;DHT22;37845;53.196;5.638;2023-05-29T04:22:56;11.00;99.90
51783;DHT22;37845;53.196;5.638;2023-05-29T04:25:22;11.00;99.90
51783;DHT22;37845;53.196;5.638;2023-05-29T04:27:54;11.00;99.90
51783;DHT22;37845;53.196;5.638;2023-05-29T04:30:20;11.00;99.90
51783;DHT22;37845;53.196;5.638;2023-05-29T04:32:46;11.00;99.90
51783;DHT22;37845;53.196;5.638;2023-05-29T04:35:12;11.10;99.90
51783;DHT22;37845;53.196;5.638;2023-05-29T04:37:38;11.10;99.90
51783;DHT22;37845;53.196;5.638;2023-05-29T04:40:06;11.10;99.90
51783;DHT22;37845;53.196;5.638;2023-05-29T04:42:38;11.10;99.90
51783;DHT22;37845;53.196;5.638;2023-05-29T04:45:13;11.10;99.90
51783;DHT22;37845;53.196;5.638;2023-05-29T04:47:39;11.10;99.90
51783;DHT22;37845;53.196;5.638;2023-05-29T04:50:12;11.10;99.90
51783;DHT22;37845;53.196;5.638;2023-05-29T04:52:38;11.20;99.90
51783;DHT22;37845;53.196;5.638;2023-05-29T04:55:05;12.30;99.90
51783;DHT22;37845;53.196;5.638;2023-05-29T04:57:31;11.20;99.90
51783;DHT22;37845;53.196;5.638;2023-05-29T04:59:57;11.10;99.90
51783;DHT22;37845;53.196;5.638;2023-05-29T05:02:25;11.10;99.90
51783;DHT22;37845;53.196;5.638;2023-05-29T05:04:51;11.20;99.90
51783;DHT22;37845;53.196;5.638;2023-05-29T05:07:35;11.20;99.90
51783;DHT22;37845;53.196;5.638;2023-05-29T05:13:36;11.30;99.90
51783;DHT22;37845;53.196;5.638;2023-05-29T05:16:08;11.30;99.90
51783;DHT22;37845;53.196;5.638;2023-05-29T05:18:34;11.30;99.90
51783;DHT22;37845;53.196;5.638;2023-05-29T05:21:00;11.30;99.90
51783;DHT22;37845;53.196;5.638;2023-05-29T05:23:28;11.30;99.90
51783;DHT22;37845;53.196;5.638;2023-05-29T05:25:54;11.30;99.90
51783;DHT22;37845;53.196;5.638;2023-05-29T05:28:20;11.30;99.90
51783;DHT22;37845;53.196;5.638;2023-05-29T05:30:46;11.30;99.90
51783;DHT22;37845;53.196;5.638;2023-05-29T05:33:15;11.40;99.90
51783;DHT22;37845;53.196;5.638;2023-05-29T05:35:43;11.30;99.90
51783;DHT22;37845;53.196;5.638;2023-05-29T05:38:09;11.30;99.90
51783;DHT22;37845;53.196;5.638;2023-05-29T05:40:35;10.50;99.90
51783;DHT22;37845;53.196;5.638;2023-05-29T05:43:01;11.40;99.90
51783;DHT22;37845;53.196;5.638;2023-05-29T05:45:27;11.40;99.90
51783;DHT22;37845;53.196;5.638;2023-05-29T05:47:56;11.40;99.90
51783;DHT22;37845;53.196;5.638;2023-05-29T05:50:22;11.40;99.90
51783;DHT22;37845;53.196;5.638;2023-05-29T05:52:49;11.40;99.90
51783;DHT22;37845;53.196;5.638;2023-05-29T05:55:16;11.50;99.90
51783;DHT22;37845;53.196;5.638;2023-05-29T05:57:41;11.50;99.90
51783;DHT22;37845;53.196;5.638;2023-05-29T06:00:10;11.50;99.90
51783;DHT22;37845;53.196;5.638;2023-05-29T06:02:42;11.50;99.90
51783;DHT22;37845;53.196;5.638;2023-05-29T06:05:09;11.50;99.90
51783;DHT22;37845;53.196;5.638;2023-05-29T06:07:38;11.50;99.90
51783;DHT22;37845;53.196;5.638;2023-05-29T06:10:14;11.60;99.90
51783;DHT22;37845;53.196;5.638;2023-05-29T06:12:40;11.60;99.90
51783;DHT22;37845;53.196;5.638;2023-05-29T06:15:06;11.60;99.90
51783;DHT22;37845;53.196;5.638;2023-05-29T06:17:32;11.70;99.90
51783;DHT22;37845;53.196;5.638;2023-05-29T06:20:02;11.80;99.90
51783;DHT22;37845;53.196;5.638;2023-05-29T06:22:30;11.70;99.90
51783;DHT22;37845;53.196;5.638;2023-05-29T06:24:59;11.90;99.90
51783;DHT22;37845;53.196;5.638;2023-05-29T06:27:25;12.00;99.90
51783;DHT22;37845;53.196;5.638;2023-05-29T06:29:56;12.00;99.90
51783;DHT22;37845;53.196;5.638;2023-05-29T06:32:25;12.00;99.90
51783;DHT22;37845;53.196;5.638;2023-05-29T06:34:54;12.00;99.90
51783;DHT22;37845;53.196;5.638;2023-05-29T06:37:19;12.10;99.90
51783;DHT22;37845;53.196;5.638;2023-05-29T06:39:46;12.10;99.90
51783;DHT22;37845;53.196;5.638;2023-05-29T06:42:12;12.10;99.90
51783;DHT22;37845;53.196;5.638;2023-05-29T06:44:37;12.10;99.90
51783;DHT22;37845;53.196;5.638;2023-05-29T06:47:05;12.10;99.90
51783;DHT22;37845;53.196;5.638;2023-05-29T06:49:33;12.00;99.90
51783;DHT22;37845;53.196;5.638;2023-05-29T06:52:07;11.80;99.90
51783;DHT22;37845;53.196;5.638;2023-05-29T06:54:45;11.90;99.90
51783;DHT22;37845;53.196;5.638;2023-05-29T06:57:12;12.00;99.90
51783;DHT22;37845;53.196;5.638;2023-05-29T07:02:41;12.10;99.90
51783;DHT22;37845;53.196;5.638;2023-05-29T07:05:10;12.20;99.90
51783;DHT22;37845;53.196;5.638;2023-05-29T07:55:13;12.30;99.90
51783;DHT22;37845;53.196;5.638;2023-05-29T08:00:57;12.50;99.90
51783;DHT22;37845;53.196;5.638;2023-05-29T08:03:36;12.50;99.90
51783;DHT22;37845;53.196;5.638;2023-05-29T08:06:18;12.80;99.90
51783;DHT22;37845;53.196;5.638;2023-05-29T08:08:47;12.90;99.90
51783;DHT22;37845;53.196;5.638;2023-05-29T08:11:21;13.10;99.90
51783;DHT22;37845;53.196;5.638;2023-05-29T08:13:49;12.80;99.90
51783;DHT22;37845;53.196;5.638;2023-05-29T08:16:15;12.90;99.90
51783;DHT22;37845;53.196;5.638;2023-05-29T08:19:05;12.90;99.90
51783;DHT22;37845;53.196;5.638;2023-05-29T08:21:36;13.50;99.90
51783;DHT22;37845;53.196;5.638;2023-05-29T08:24:14;13.10;99.90
51783;DHT22;37845;53.196;5.638;2023-05-29T08:26:40;13.20;99.90
51783;DHT22;37845;53.196;5.638;2023-05-29T08:29:29;13.20;99.90
51783;DHT22;37845;53.196;5.638;2023-05-29T08:32:29;13.30;99.90
51783;DHT22;37845;53.196;5.638;2023-05-29T08:35:20;13.20;99.90
51783;DHT22;37845;53.196;5.638;2023-05-29T08:38:11;12.80;99.90
51783;DHT22;37845;53.196;5.638;2023-05-29T08:40:54;13.40;99.90
51783;DHT22;37845;53.196;5.638;2023-05-29T08:43:37;12.90;99.90
51783;DHT22;37845;53.196;5.638;2023-05-29T08:46:24;13.10;99.90
51783;DHT22;37845;53.196;5.638;2023-05-29T08:49:14;13.70;99.90
51783;DHT22;37845;53.196;5.638;2023-05-29T08:51:53;13.40;99.90
51783;DHT22;37845;53.196;5.638;2023-05-29T09:16:51;13.70;99.90
51783;DHT22;37845;53.196;5.638;2023-05-29T09:19:49;13.40;99.90
51783;DHT22;37845;53.196;5.638;2023-05-29T09:24:51;13.40;99.90
51783;DHT22;37845;53.196;5.638;2023-05-29T09:27:17;13.40;99.90
51783;DHT22;37845;53.196;5.638;2023-05-29T09:29:44;13.40;99.90
51783;DHT22;37845;53.196;5.638;2023-05-29T09:32:16;13.40;99.90
51783;DHT22;37845;53.196;5.638;2023-05-29T10:18:32;13.90;99.90
51783;DHT22;37845;53.196;5.638;2023-05-29T10:21:01;13.90;99.90
51783;DHT22;37845;53.196;5.638;2023-05-29T10:23:36;13.90;99.90
51783;DHT22;37845;53.196;5.638;2023-05-29T10:35:53;14.30;99.90
51783;DHT22;37845;53.196;5.638;2023-05-29T10:38:32;14.30;99.90
51783;DHT22;37845;53.196;5.638;2023-05-29T10:49:25;14.60;99.90
51783;DHT22;37845;53.196;5.638;2023-05-29T10:51:54;14.60;99.90
51783;DHT22;37845;53.196;5.638;2023-05-29T10:54:49;14.60;99.90
51783;DHT22;37845;53.196;5.638;2023-05-29T10:57:25;14.60;99.90
51783;DHT22;37845;53.196;5.638;2023-05-29T11:00:06;14.60;99.90
51783;DHT22;37845;53.196;5.638;2023-05-29T11:02:39;14.50;99.90
51783;DHT22;37845;53.196;5.638;2023-05-29T11:07:56;14.50;99.90
51783;DHT22;37845;53.196;5.638;2023-05-29T11:11:02;14.60;99.90
51783;DHT22;37845;53.196;5.638;2023-05-29T11:13:37;14.60;99.90
51783;DHT22;37845;53.196;5.638;2023-05-29T11:18:49;14.70;99.90
51783;DHT22;37845;53.196;5.638;2023-05-29T11:24:05;14.60;99.90
51783;DHT22;37845;53.196;5.638;2023-05-29T11:26:32;14.70;99.90
51783;DHT22;37845;53.196;5.638;2023-05-29T11:29:05;14.60;99.90
51783;DHT22;37845;53.196;5.638;2023-05-29T11:31:40;14.60;99.90
51783;DHT22;37845;53.196;5.638;2023-05-29T11:34:09;14.80;99.90
51783;DHT22;37845;53.196;5.638;2023-05-29T11:37:02;15.00;99.90
51783;DHT22;37845;53.196;5.638;2023-05-29T11:39:28;15.10;99.90
51783;DHT22;37845;53.196;5.638;2023-05-29T11:41:55;15.00;99.90
51783;DHT22;37845;53.196;5.638;2023-05-29T11:44:24;15.00;99.90
51783;DHT22;37845;53.196;5.638;2023-05-29T11:47:06;15.20;99.90
51783;DHT22;37845;53.196;5.638;2023-05-29T11:49:34;14.40;99.90
51783;DHT22;37845;53.196;5.638;2023-05-29T11:52:11;15.20;99.90
51783;DHT22;37845;53.196;5.638;2023-05-29T11:54:37;15.20;99.90
51783;DHT22;37845;53.196;5.638;2023-05-29T11:57:03;15.70;99.90
51783;DHT22;37845;53.196;5.638;2023-05-29T11:59:34;15.10;99.90
51783;DHT22;37845;53.196;5.638;2023-05-29T12:02:18;15.10;99.90
51783;DHT22;37845;53.196;5.638;2023-05-29T12:05:00;15.10;99.90
51783;DHT22;37845;53.196;5.638;2023-05-29T12:07:28;15.10;99.90
51783;DHT22;37845;53.196;5.638;2023-05-29T12:09:54;15.20;99.90
51783;DHT22;37845;53.196;5.638;2023-05-29T12:12:23;15.20;99.90
51783;DHT22;37845;53.196;5.638;2023-05-29T12:14:55;15.30;99.90
51783;DHT22;37845;53.196;5.638;2023-05-29T12:17:21;15.30;99.90
51783;DHT22;37845;53.196;5.638;2023-05-29T12:19:47;15.30;99.90
51783;DHT22;37845;53.196;5.638;2023-05-29T12:22:13;15.40;99.90
51783;DHT22;37845;53.196;5.638;2023-05-29T12:24:38;15.40;99.90
51783;DHT22;37845;53.196;5.638;2023-05-29T12:27:05;15.30;99.90
51783;DHT22;37845;53.196;5.638;2023-05-29T12:29:42;15.40;99.90
51783;DHT22;37845;53.196;5.638;2023-05-29T12:32:11;15.50;99.90
51783;DHT22;37845;53.196;5.638;2023-05-29T12:34:36;15.60;99.90
51783;DHT22;37845;53.196;5.638;2023-05-29T12:37:06;15.50;99.90
51783;DHT22;37845;53.196;5.638;2023-05-29T12:39:34;15.50;99.90
51783;DHT22;37845;53.196;5.638;2023-05-29T12:42:00;15.50;99.90
51783;DHT22;37845;53.196;5.638;2023-05-29T12:44:26;15.60;99.90
51783;DHT22;37845;53.196;5.638;2023-05-29T12:46:56;15.40;99.90
51783;DHT22;37845;53.196;5.638;2023-05-29T12:49:22;15.40;99.90
51783;DHT22;37845;53.196;5.638;2023-05-29T12:51:51;15.30;99.90
51783;DHT22;37845;53.196;5.638;2023-05-29T12:54:18;15.40;99.90
51783;DHT22;37845;53.196;5.638;2023-05-29T12:56:43;15.50;99.90
51783;DHT22;37845;53.196;5.638;2023-05-29T12:59:14;15.60;99.90
51783;DHT22;37845;53.196;5.638;2023-05-29T13:01:44;15.70;99.90
51783;DHT22;37845;53.196;5.638;2023-05-29T13:04:09;15.50;99.90
51783;DHT22;37845;53.196;5.638;2023-05-29T13:06:38;15.50;99.90
51783;DHT22;37845;53.196;5.638;2023-05-29T13:09:03;15.40;99.90
51783;DHT22;37845;53.196;5.638;2023-05-29T13:11:30;15.60;99.90
51783;DHT22;37845;53.196;5.638;2023-05-29T13:13:56;15.50;99.90
51783;DHT22;37845;53.196;5.638;2023-05-29T13:16:22;15.60;99.90
51783;DHT22;37845;53.196;5.638;2023-05-29T13:18:50;15.60;99.90
51783;DHT22;37845;53.196;5.638;2023-05-29T13:21:16;15.70;99.90
51783;DHT22;37845;53.196;5.638;2023-05-29T13:23:42;15.70;99.90
51783;DHT22;37845;53.196;5.638;2023-05-29T13:26:11;15.70;99.90
51783;DHT22;37845;53.196;5.638;2023-05-29T13:28:37;15.70;99.90
51783;DHT22;37845;53.196;5.638;2023-05-29T13:31:06;15.70;99.90
51783;DHT22;37845;53.196;5.638;2023-05-29T13:33:31;15.60;99.90
51783;DHT22;37845;53.196;5.638;2023-05-29T13:35:57;15.10;99.90
51783;DHT22;37845;53.196;5.638;2023-05-29T13:38:25;15.50;99.90
51783;DHT22;37845;53.196;5.638;2023-05-29T13:40:51;15.60;99.90
51783;DHT22;37845;53.196;5.638;2023-05-29T13:43:17;15.70;99.90
51783;DHT22;37845;53.196;5.638;2023-05-29T13:45:49;15.80;99.90
51783;DHT22;37845;53.196;5.638;2023-05-29T13:48:18;15.70;99.90
51783;DHT22;37845;53.196;5.638;2023-05-29T13:50:43;15.70;99.90
51783;DHT22;37845;53.196;5.638;2023-05-29T13:53:09;15.80;99.90
51783;DHT22;37845;53.196;5.638;2023-05-29T13:55:35;15.90;99.90
51783;DHT22;37845;53.196;5.638;2023-05-29T13:58:03;15.80;99.90
51783;DHT22;37845;53.196;5.638;2023-05-29T14:00:32;15.80;99.90
51783;DHT22;37845;53.196;5.638;2023-05-29T14:02:58;16.40;99.90
51783;DHT22;37845;53.196;5.638;2023-05-29T14:05:26;15.90;99.90
51783;DHT22;37845;53.196;5.638;2023-05-29T14:07:55;15.90;99.90
51783;DHT22;37845;53.196;5.638;2023-05-29T14:10:23;15.00;99.90
51783;DHT22;37845;53.196;5.638;2023-05-29T14:12:49;15.90;99.90
51783;DHT22;37845;53.196;5.638;2023-05-29T14:15:15;15.90;99.90
51783;DHT22;37845;53.196;5.638;2023-05-29T14:17:42;16.00;99.90
51783;DHT22;37845;53.196;5.638;2023-05-29T14:20:08;16.10;99.90
51783;DHT22;37845;53.196;5.638;2023-05-29T14:22:34;16.50;99.90
51783;DHT22;37845;53.196;5.638;2023-05-29T14:25:01;16.30;99.90
51783;DHT22;37845;53.196;5.638;2023-05-29T14:27:33;16.30;99.90
51783;DHT22;37845;53.196;5.638;2023-05-29T14:30:03;16.30;99.90
51783;DHT22;37845;53.196;5.638;2023-05-29T14:32:29;16.20;99.90
51783;DHT22;37845;53.196;5.638;2023-05-29T14:35:00;16.30;99.90
51783;DHT22;37845;53.196;5.638;2023-05-29T14:37:29;16.00;99.90
51783;DHT22;37845;53.196;5.638;2023-05-29T14:39:58;16.10;99.90
51783;DHT22;37845;53.196;5.638;2023-05-29T14:48:11;16.60;99.90
51783;DHT22;37845;53.196;5.638;2023-05-29T14:50:39;16.10;99.90
51783;DHT22;37845;53.196;5.638;2023-05-29T14:53:05;16.00;99.90
51783;DHT22;37845;53.196;5.638;2023-05-29T14:55:30;16.10;99.90
51783;DHT22;37845;53.196;5.638;2023-05-29T14:58:03;16.20;99.90
51783;DHT22;37845;53.196;5.638;2023-05-29T15:00:29;15.80;99.90
51783;DHT22;37845;53.196;5.638;2023-05-29T15:06:38;15.00;99.90
51783;DHT22;37845;53.196;5.638;2023-05-29T15:09:04;15.90;99.90
51783;DHT22;37845;53.196;5.638;2023-05-29T15:11:29;15.90;99.90
51783;DHT22;37845;53.196;5.638;2023-05-29T15:13:57;15.80;99.90
51783;DHT22;37845;53.196;5.638;2023-05-29T15:16:24;15.80;99.90
51783;DHT22;37845;53.196;5.638;2023-05-29T15:19:01;15.70;99.90
51783;DHT22;37845;53.196;5.638;2023-05-29T15:21:46;15.70;99.90
51783;DHT22;37845;53.196;5.638;2023-05-29T15:24:12;15.60;99.90
51783;DHT22;37845;53.196;5.638;2023-05-29T15:26:46;15.60;99.90
51783;DHT22;37845;53.196;5.638;2023-05-29T15:32:04;16.20;99.90
51783;DHT22;37845;53.196;5.638;2023-05-29T15:34:30;15.50;99.90
51783;DHT22;37845;53.196;5.638;2023-05-29T15:36:56;15.50;99.90
51783;DHT22;37845;53.196;5.638;2023-05-29T15:39:44;15.40;99.90
51783;DHT22;37845;53.196;5.638;2023-05-29T15:42:11;15.50;99.90
51783;DHT22;37845;53.196;5.638;2023-05-29T15:44:40;15.40;99.90
51783;DHT22;37845;53.196;5.638;2023-05-29T15:47:05;15.30;99.90
51783;DHT22;37845;53.196;5.638;2023-05-29T15:49:31;15.40;99.90
51783;DHT22;37845;53.196;5.638;2023-05-29T15:51:58;15.40;99.90
51783;DHT22;37845;53.196;5.638;2023-05-29T15:54:26;15.50;99.90
51783;DHT22;37845;53.196;5.638;2023-05-29T15:56:55;15.50;99.90
51783;DHT22;37845;53.196;5.638;2023-05-29T15:59:31;15.50;99.90
51783;DHT22;37845;53.196;5.638;2023-05-29T16:02:13;14.80;99.90
51783;DHT22;37845;53.196;5.638;2023-05-29T16:04:48;15.70;99.90
51783;DHT22;37845;53.196;5.638;2023-05-29T16:14:57;15.10;99.90
51783;DHT22;37845;53.196;5.638;2023-05-29T16:17:24;15.60;99.90
51783;DHT22;37845;53.196;5.638;2023-05-29T16:19:50;15.40;99.90
51783;DHT22;37845;53.196;5.638;2023-05-29T16:22:20;15.50;99.90
51783;DHT22;37845;53.196;5.638;2023-05-29T16:24:47;15.40;99.90
51783;DHT22;37845;53.196;5.638;2023-05-29T16:27:13;15.20;99.90
51783;DHT22;37845;53.196;5.638;2023-05-29T16:29:42;15.20;99.90
51783;DHT22;37845;53.196;5.638;2023-05-29T16:32:09;15.20;99.90
51783;DHT22;37845;53.196;5.638;2023-05-29T16:34:35;15.20;99.90
51783;DHT22;37845;53.196;5.638;2023-05-29T16:37:09;15.30;99.90
51783;DHT22;37845;53.196;5.638;2023-05-29T16:39:46;16.20;99.90
51783;DHT22;37845;53.196;5.638;2023-05-29T16:42:18;15.30;99.90
51783;DHT22;37845;53.196;5.638;2023-05-29T16:44:43;15.40;99.90
51783;DHT22;37845;53.196;5.638;2023-05-29T16:47:12;15.40;99.90
51783;DHT22;37845;53.196;5.638;2023-05-29T16:49:43;15.40;99.90
51783;DHT22;37845;53.196;5.638;2023-05-29T16:52:11;15.40;99.90
51783;DHT22;37845;53.196;5.638;2023-05-29T16:54:56;15.30;99.90
51783;DHT22;37845;53.196;5.638;2023-05-29T16:57:28;15.20;99.90
51783;DHT22;37845;53.196;5.638;2023-05-29T16:59:55;15.10;99.90
51783;DHT22;37845;53.196;5.638;2023-05-29T17:02:23;14.40;99.90
51783;DHT22;37845;53.196;5.638;2023-05-29T17:04:54;15.10;99.90
51783;DHT22;37845;53.196;5.638;2023-05-29T17:07:19;15.00;99.90
51783;DHT22;37845;53.196;5.638;2023-05-29T17:09:46;15.60;99.90
51783;DHT22;37845;53.196;5.638;2023-05-29T17:12:12;15.00;99.90
51783;DHT22;37845;53.196;5.638;2023-05-29T17:14:38;14.80;99.90
51783;DHT22;37845;53.196;5.638;2023-05-29T17:17:05;14.70;99.90
51783;DHT22;37845;53.196;5.638;2023-05-29T17:19:31;14.70;99.90
51783;DHT22;37845;53.196;5.638;2023-05-29T17:21:57;14.60;99.90
51783;DHT22;37845;53.196;5.638;2023-05-29T17:24:34;14.60;99.90
51783;DHT22;37845;53.196;5.638;2023-05-29T17:27:00;14.50;99.90
51783;DHT22;37845;53.196;5.638;2023-05-29T17:29:37;14.30;99.90
51783;DHT22;37845;53.196;5.638;2023-05-29T17:32:12;13.80;99.90
51783;DHT22;37845;53.196;5.638;2023-05-29T17:38:19;14.00;99.90
51783;DHT22;37845;53.196;5.638;2023-05-29T17:44:20;13.80;99.90
51783;DHT22;37845;53.196;5.638;2023-05-29T17:46:46;14.40;99.90
51783;DHT22;37845;53.196;5.638;2023-05-29T17:49:15;14.30;99.90
51783;DHT22;37845;53.196;5.638;2023-05-29T17:51:40;14.30;99.90
